sensor_id;sensor_type;location;lat;lon;timestamp;temperature;humidity
52621;DHT22;38515;53.160;6.990;2023-12-22T00:01:30;5.60;99.90
52621;DHT22;38515;53.160;6.990;2023-12-22T00:03:56;4.80;99.90
52621;DHT22;38515;53.160;6.990;2023-12-22T00:06:22;4.90;80.20
52621;DHT22;38515;53.160;6.990;2023-12-22T00:08:47;5.10;99.90
52621;DHT22;38515;53.160;6.990;2023-12-22T00:11:13;5.40;99.90
52621;DHT22;38515;53.160;6.990;2023-12-22T00:13:39;5.20;60.90
52621;DHT22;38515;53.160;6.990;2023-12-22T00:16:05;5.20;94.00
52621;DHT22;38515;53.160;6.990;2023-12-22T00:18:30;5.20;29.40
52621;DHT22;38515;53.160;6.990;2023-12-22T00:20:57;5.30;30.30
52621;DHT22;38515;53.160;6.990;2023-12-22T00:23:22;5.40;99.90
52621;DHT22;38515;53.160;6.990;2023-12-22T00:25:48;5.40;99.90
52621;DHT22;38515;53.160;6.990;2023-12-22T00:28:13;5.40;99.90
52621;DHT22;38515;53.160;6.990;2023-12-22T00:30:39;5.10;99.90
52621;DHT22;38515;53.160;6.990;2023-12-22T00:33:05;4.50;1.00
52621;DHT22;38515;53.160;6.990;2023-12-22T00:35:31;4.20;99.90
52621;DHT22;38515;53.160;6.990;2023-12-22T00:37:57;3.90;1.00
52621;DHT22;38515;53.160;6.990;2023-12-22T00:40:22;3.80;8.90
52621;DHT22;38515;53.160;6.990;2023-12-22T00:42:48;3.90;99.90
52621;DHT22;38515;53.160;6.990;2023-12-22T00:45:14;3.90;1.00
52621;DHT22;38515;53.160;6.990;2023-12-22T00:47:39;3.90;1.00
52621;DHT22;38515;53.160;6.990;2023-12-22T00:50:05;4.00;99.90
52621;DHT22;38515;53.160;6.990;2023-12-22T00:52:32;4.00;99.90
52621;DHT22;38515;53.160;6.990;2023-12-22T00:54:57;4.00;99.90
52621;DHT22;38515;53.160;6.990;2023-12-22T00:57:23;4.10;99.90
52621;DHT22;38515;53.160;6.990;2023-12-22T00:59:49;4.20;99.90
52621;DHT22;38515;53.160;6.990;2023-12-22T01:02:15;4.60;1.00
52621;DHT22;38515;53.160;6.990;2023-12-22T01:04:41;4.60;91.20
52621;DHT22;38515;53.160;6.990;2023-12-22T01:07:10;4.50;99.90
52621;DHT22;38515;53.160;6.990;2023-12-22T01:09:37;4.70;1.00
52621;DHT22;38515;53.160;6.990;2023-12-22T01:12:04;4.70;99.90
52621;DHT22;38515;53.160;6.990;2023-12-22T01:14:30;4.70;99.90
52621;DHT22;38515;53.160;6.990;2023-12-22T01:16:56;4.80;1.00
52621;DHT22;38515;53.160;6.990;2023-12-22T01:19:22;5.70;99.90
52621;DHT22;38515;53.160;6.990;2023-12-22T01:21:47;4.80;99.90
52621;DHT22;38515;53.160;6.990;2023-12-22T01:24:13;4.80;99.90
52621;DHT22;38515;53.160;6.990;2023-12-22T01:26:39;4.80;99.90
52621;DHT22;38515;53.160;6.990;2023-12-22T01:29:04;5.30;99.90
52621;DHT22;38515;53.160;6.990;2023-12-22T01:31:30;4.90;99.90
52621;DHT22;38515;53.160;6.990;2023-12-22T01:33:56;4.90;99.90
52621;DHT22;38515;53.160;6.990;2023-12-22T01:36:21;4.90;99.90
52621;DHT22;38515;53.160;6.990;2023-12-22T01:38:47;5.00;99.90
52621;DHT22;38515;53.160;6.990;2023-12-22T01:41:13;4.90;1.00
52621;DHT22;38515;53.160;6.990;2023-12-22T01:43:39;4.80;99.90
52621;DHT22;38515;53.160;6.990;2023-12-22T01:46:06;4.80;99.90
52621;DHT22;38515;53.160;6.990;2023-12-22T01:48:33;4.80;99.90
52621;DHT22;38515;53.160;6.990;2023-12-22T01:51:01;4.80;99.90
52621;DHT22;38515;53.160;6.990;2023-12-22T01:53:28;4.80;99.90
52621;DHT22;38515;53.160;6.990;2023-12-22T01:55:55;4.70;99.90
52621;DHT22;38515;53.160;6.990;2023-12-22T01:58:22;4.80;99.90
52621;DHT22;38515;53.160;6.990;2023-12-22T02:00:49;4.90;99.90
52621;DHT22;38515;53.160;6.990;2023-12-22T02:03:15;5.00;99.90
52621;DHT22;38515;53.160;6.990;2023-12-22T02:05:42;5.10;99.90
52621;DHT22;38515;53.160;6.990;2023-12-22T02:08:09;5.10;1.00
52621;DHT22;38515;53.160;6.990;2023-12-22T02:10:36;5.10;1.00
52621;DHT22;38515;53.160;6.990;2023-12-22T02:13:05;5.10;1.00
52621;DHT22;38515;53.160;6.990;2023-12-22T02:15:32;5.20;99.90
52621;DHT22;38515;53.160;6.990;2023-12-22T02:18:12;5.20;99.90
52621;DHT22;38515;53.160;6.990;2023-12-22T02:20:40;5.30;1.00
52621;DHT22;38515;53.160;6.990;2023-12-22T02:23:06;5.40;1.00
52621;DHT22;38515;53.160;6.990;2023-12-22T02:25:32;5.40;19.60
52621;DHT22;38515;53.160;6.990;2023-12-22T02:28:07;5.40;99.90
52621;DHT22;38515;53.160;6.990;2023-12-22T02:30:54;5.60;1.00
52621;DHT22;38515;53.160;6.990;2023-12-22T02:33:24;5.20;28.70
52621;DHT22;38515;53.160;6.990;2023-12-22T02:35:53;5.10;99.90
52621;DHT22;38515;53.160;6.990;2023-12-22T02:38:24;5.10;99.90
52621;DHT22;38515;53.160;6.990;2023-12-22T02:40:50;5.20;99.90
52621;DHT22;38515;53.160;6.990;2023-12-22T02:43:16;5.10;61.90
52621;DHT22;38515;53.160;6.990;2023-12-22T02:45:42;5.20;91.50
52621;DHT22;38515;53.160;6.990;2023-12-22T02:48:08;5.20;99.90
52621;DHT22;38515;53.160;6.990;2023-12-22T02:50:34;5.10;99.90
52621;DHT22;38515;53.160;6.990;2023-12-22T02:52:59;5.00;64.90
52621;DHT22;38515;53.160;6.990;2023-12-22T02:55:25;5.00;63.00
52621;DHT22;38515;53.160;6.990;2023-12-22T02:57:50;6.10;99.90
52621;DHT22;38515;53.160;6.990;2023-12-22T03:00:16;5.20;99.90
52621;DHT22;38515;53.160;6.990;2023-12-22T03:02:42;5.10;99.90
52621;DHT22;38515;53.160;6.990;2023-12-22T03:05:08;5.10;99.90
52621;DHT22;38515;53.160;6.990;2023-12-22T03:07:33;5.10;99.90
52621;DHT22;38515;53.160;6.990;2023-12-22T03:09:59;6.10;99.90
52621;DHT22;38515;53.160;6.990;2023-12-22T03:12:25;5.10;99.90
52621;DHT22;38515;53.160;6.990;2023-12-22T03:14:50;5.40;99.90
52621;DHT22;38515;53.160;6.990;2023-12-22T03:17:16;5.20;1.00
52621;DHT22;38515;53.160;6.990;2023-12-22T03:19:41;5.00;1.00
52621;DHT22;38515;53.160;6.990;2023-12-22T03:22:08;4.70;99.90
52621;DHT22;38515;53.160;6.990;2023-12-22T03:24:33;4.50;1.00
52621;DHT22;38515;53.160;6.990;2023-12-22T03:26:59;4.40;1.00
52621;DHT22;38515;53.160;6.990;2023-12-22T03:29:25;4.20;1.00
52621;DHT22;38515;53.160;6.990;2023-12-22T03:31:50;4.10;1.00
52621;DHT22;38515;53.160;6.990;2023-12-22T03:34:16;4.00;1.00
52621;DHT22;38515;53.160;6.990;2023-12-22T03:36:41;3.90;1.00
52621;DHT22;38515;53.160;6.990;2023-12-22T03:39:07;3.90;1.00
52621;DHT22;38515;53.160;6.990;2023-12-22T03:41:33;3.90;99.90
52621;DHT22;38515;53.160;6.990;2023-12-22T03:43:59;4.00;99.90
52621;DHT22;38515;53.160;6.990;2023-12-22T03:46:25;4.50;99.90
52621;DHT22;38515;53.160;6.990;2023-12-22T03:48:51;4.10;99.90
52621;DHT22;38515;53.160;6.990;2023-12-22T03:51:17;4.20;34.10
52621;DHT22;38515;53.160;6.990;2023-12-22T03:53:42;4.20;99.90
52621;DHT22;38515;53.160;6.990;2023-12-22T03:56:08;4.30;88.40
52621;DHT22;38515;53.160;6.990;2023-12-22T03:58:35;4.50;62.20
52621;DHT22;38515;53.160;6.990;2023-12-22T04:01:01;4.40;93.50
52621;DHT22;38515;53.160;6.990;2023-12-22T04:03:27;4.40;40.80
52621;DHT22;38515;53.160;6.990;2023-12-22T04:05:52;4.60;99.90
52621;DHT22;38515;53.160;6.990;2023-12-22T04:08:18;4.70;99.90
52621;DHT22;38515;53.160;6.990;2023-12-22T04:10:46;4.80;99.90
52621;DHT22;38515;53.160;6.990;2023-12-22T04:13:12;5.10;99.90
52621;DHT22;38515;53.160;6.990;2023-12-22T04:15:38;5.10;1.00
52621;DHT22;38515;53.160;6.990;2023-12-22T04:18:04;5.30;27.10
52621;DHT22;38515;53.160;6.990;2023-12-22T04:20:30;5.10;97.40
52621;DHT22;38515;53.160;6.990;2023-12-22T04:22:55;4.70;99.90
52621;DHT22;38515;53.160;6.990;2023-12-22T04:25:21;4.60;99.90
52621;DHT22;38515;53.160;6.990;2023-12-22T04:27:48;4.50;56.30
52621;DHT22;38515;53.160;6.990;2023-12-22T04:30:15;4.60;1.00
52621;DHT22;38515;53.160;6.990;2023-12-22T04:32:41;4.60;1.00
52621;DHT22;38515;53.160;6.990;2023-12-22T04:35:07;4.60;1.00
52621;DHT22;38515;53.160;6.990;2023-12-22T04:37:32;4.60;1.00
52621;DHT22;38515;53.160;6.990;2023-12-22T04:39:58;4.70;1.00
52621;DHT22;38515;53.160;6.990;2023-12-22T04:42:24;4.70;1.00
52621;DHT22;38515;53.160;6.990;2023-12-22T04:44:51;4.80;1.00
52621;DHT22;38515;53.160;6.990;2023-12-22T04:47:17;4.80;1.00
52621;DHT22;38515;53.160;6.990;2023-12-22T04:49:42;4.80;99.90
52621;DHT22;38515;53.160;6.990;2023-12-22T04:52:08;5.30;99.90
52621;DHT22;38515;53.160;6.990;2023-12-22T04:54:34;5.10;99.90
52621;DHT22;38515;53.160;6.990;2023-12-22T04:56:59;5.40;99.90
52621;DHT22;38515;53.160;6.990;2023-12-22T04:59:25;5.40;19.10
52621;DHT22;38515;53.160;6.990;2023-12-22T05:01:51;5.30;99.90
52621;DHT22;38515;53.160;6.990;2023-12-22T05:04:16;5.40;1.00
52621;DHT22;38515;53.160;6.990;2023-12-22T05:06:43;5.70;99.90
52621;DHT22;38515;53.160;6.990;2023-12-22T05:09:08;6.00;99.90
52621;DHT22;38515;53.160;6.990;2023-12-22T05:11:35;5.70;99.90
52621;DHT22;38515;53.160;6.990;2023-12-22T05:14:00;5.90;99.90
52621;DHT22;38515;53.160;6.990;2023-12-22T05:16:26;5.70;99.90
52621;DHT22;38515;53.160;6.990;2023-12-22T05:18:51;5.80;99.90
52621;DHT22;38515;53.160;6.990;2023-12-22T05:21:17;5.70;99.90
52621;DHT22;38515;53.160;6.990;2023-12-22T05:23:43;5.70;99.90
52621;DHT22;38515;53.160;6.990;2023-12-22T05:26:08;5.70;99.90
52621;DHT22;38515;53.160;6.990;2023-12-22T05:28:34;5.90;99.90
52621;DHT22;38515;53.160;6.990;2023-12-22T05:35:06;5.90;99.90
52621;DHT22;38515;53.160;6.990;2023-12-22T05:37:32;5.90;99.90
52621;DHT22;38515;53.160;6.990;2023-12-22T05:40:00;6.00;99.90
52621;DHT22;38515;53.160;6.990;2023-12-22T05:42:26;6.00;99.90
52621;DHT22;38515;53.160;6.990;2023-12-22T05:44:52;6.40;99.90
52621;DHT22;38515;53.160;6.990;2023-12-22T05:47:17;6.10;99.90
52621;DHT22;38515;53.160;6.990;2023-12-22T05:49:43;6.20;99.90
52621;DHT22;38515;53.160;6.990;2023-12-22T05:52:09;6.20;99.90
52621;DHT22;38515;53.160;6.990;2023-12-22T05:54:35;6.20;99.90
52621;DHT22;38515;53.160;6.990;2023-12-22T05:57:03;6.60;99.90
52621;DHT22;38515;53.160;6.990;2023-12-22T05:59:30;6.20;99.90
52621;DHT22;38515;53.160;6.990;2023-12-22T06:01:58;6.20;99.90
52621;DHT22;38515;53.160;6.990;2023-12-22T06:04:24;6.20;99.90
52621;DHT22;38515;53.160;6.990;2023-12-22T06:06:50;6.20;99.90
52621;DHT22;38515;53.160;6.990;2023-12-22T06:09:16;6.20;99.90
52621;DHT22;38515;53.160;6.990;2023-12-22T06:11:44;6.50;99.90
52621;DHT22;38515;53.160;6.990;2023-12-22T06:14:10;6.20;99.90
52621;DHT22;38515;53.160;6.990;2023-12-22T06:16:35;6.20;99.90
52621;DHT22;38515;53.160;6.990;2023-12-22T06:19:01;6.20;99.90
52621;DHT22;38515;53.160;6.990;2023-12-22T06:21:27;6.20;99.90
52621;DHT22;38515;53.160;6.990;2023-12-22T06:23:52;6.20;99.90
52621;DHT22;38515;53.160;6.990;2023-12-22T06:26:18;6.20;99.90
52621;DHT22;38515;53.160;6.990;2023-12-22T06:28:43;6.20;99.90
52621;DHT22;38515;53.160;6.990;2023-12-22T06:31:17;6.20;99.90
52621;DHT22;38515;53.160;6.990;2023-12-22T06:33:47;6.20;99.90
52621;DHT22;38515;53.160;6.990;2023-12-22T06:36:23;6.30;99.90
52621;DHT22;38515;53.160;6.990;2023-12-22T06:38:50;6.30;99.90
52621;DHT22;38515;53.160;6.990;2023-12-22T06:41:24;6.90;99.90
52621;DHT22;38515;53.160;6.990;2023-12-22T06:43:50;6.30;99.90
52621;DHT22;38515;53.160;6.990;2023-12-22T06:46:23;6.30;99.90
52621;DHT22;38515;53.160;6.990;2023-12-22T06:48:52;6.20;1.00
52621;DHT22;38515;53.160;6.990;2023-12-22T06:51:18;6.20;1.00
52621;DHT22;38515;53.160;6.990;2023-12-22T06:53:45;6.20;1.00
52621;DHT22;38515;53.160;6.990;2023-12-22T06:56:18;6.10;1.00
52621;DHT22;38515;53.160;6.990;2023-12-22T06:58:44;6.10;1.00
52621;DHT22;38515;53.160;6.990;2023-12-22T07:01:18;6.10;1.00
52621;DHT22;38515;53.160;6.990;2023-12-22T07:03:45;6.10;99.90
52621;DHT22;38515;53.160;6.990;2023-12-22T07:06:11;6.20;99.90
52621;DHT22;38515;53.160;6.990;2023-12-22T07:08:37;6.20;99.90
52621;DHT22;38515;53.160;6.990;2023-12-22T07:11:02;6.10;99.90
52621;DHT22;38515;53.160;6.990;2023-12-22T07:13:28;6.10;1.00
52621;DHT22;38515;53.160;6.990;2023-12-22T07:15:54;5.90;1.00
52621;DHT22;38515;53.160;6.990;2023-12-22T07:18:19;5.80;1.00
52621;DHT22;38515;53.160;6.990;2023-12-22T07:20:45;5.70;99.90
52621;DHT22;38515;53.160;6.990;2023-12-22T07:23:10;5.60;99.90
52621;DHT22;38515;53.160;6.990;2023-12-22T07:25:37;5.30;1.00
52621;DHT22;38515;53.160;6.990;2023-12-22T07:28:04;5.00;99.90
52621;DHT22;38515;53.160;6.990;2023-12-22T07:30:30;4.80;1.00
52621;DHT22;38515;53.160;6.990;2023-12-22T07:32:56;4.50;99.90
52621;DHT22;38515;53.160;6.990;2023-12-22T07:35:21;4.40;1.00
52621;DHT22;38515;53.160;6.990;2023-12-22T07:37:48;4.20;99.90
52621;DHT22;38515;53.160;6.990;2023-12-22T07:40:13;4.10;5.50
52621;DHT22;38515;53.160;6.990;2023-12-22T07:42:39;4.20;1.00
52621;DHT22;38515;53.160;6.990;2023-12-22T07:45:05;5.20;1.00
52621;DHT22;38515;53.160;6.990;2023-12-22T07:47:32;4.00;92.50
52621;DHT22;38515;53.160;6.990;2023-12-22T07:49:58;4.00;99.90
52621;DHT22;38515;53.160;6.990;2023-12-22T07:52:23;4.10;1.00
52621;DHT22;38515;53.160;6.990;2023-12-22T07:54:49;4.00;1.00
52621;DHT22;38515;53.160;6.990;2023-12-22T07:57:15;3.90;1.00
52621;DHT22;38515;53.160;6.990;2023-12-22T07:59:40;4.40;64.50
52621;DHT22;38515;53.160;6.990;2023-12-22T08:02:06;3.90;99.90
52621;DHT22;38515;53.160;6.990;2023-12-22T08:04:32;3.90;99.90
52621;DHT22;38515;53.160;6.990;2023-12-22T08:06:57;3.80;99.90
52621;DHT22;38515;53.160;6.990;2023-12-22T08:09:23;3.80;1.00
52621;DHT22;38515;53.160;6.990;2023-12-22T08:11:49;3.80;19.80
52621;DHT22;38515;53.160;6.990;2023-12-22T08:14:18;4.00;1.00
52621;DHT22;38515;53.160;6.990;2023-12-22T08:16:44;4.00;13.90
52621;DHT22;38515;53.160;6.990;2023-12-22T08:19:10;4.30;99.90
52621;DHT22;38515;53.160;6.990;2023-12-22T08:21:35;4.70;99.90
52621;DHT22;38515;53.160;6.990;2023-12-22T08:24:01;4.10;99.90
52621;DHT22;38515;53.160;6.990;2023-12-22T08:26:27;4.20;99.90
52621;DHT22;38515;53.160;6.990;2023-12-22T08:28:52;4.10;99.90
52621;DHT22;38515;53.160;6.990;2023-12-22T08:31:18;4.30;1.00
52621;DHT22;38515;53.160;6.990;2023-12-22T08:33:44;4.20;1.00
52621;DHT22;38515;53.160;6.990;2023-12-22T08:36:11;5.30;1.00
52621;DHT22;38515;53.160;6.990;2023-12-22T08:38:39;4.40;97.20
52621;DHT22;38515;53.160;6.990;2023-12-22T08:41:09;4.40;99.90
52621;DHT22;38515;53.160;6.990;2023-12-22T08:43:36;4.60;99.90
52621;DHT22;38515;53.160;6.990;2023-12-22T08:46:03;4.50;99.90
52621;DHT22;38515;53.160;6.990;2023-12-22T08:48:29;4.50;99.90
52621;DHT22;38515;53.160;6.990;2023-12-22T08:50:55;4.60;99.90
52621;DHT22;38515;53.160;6.990;2023-12-22T08:53:21;4.70;99.90
52621;DHT22;38515;53.160;6.990;2023-12-22T08:55:46;4.80;26.90
52621;DHT22;38515;53.160;6.990;2023-12-22T08:58:12;4.90;1.00
52621;DHT22;38515;53.160;6.990;2023-12-22T09:00:38;4.90;99.90
52621;DHT22;38515;53.160;6.990;2023-12-22T09:03:03;5.00;1.00
52621;DHT22;38515;53.160;6.990;2023-12-22T09:05:29;5.10;1.00
52621;DHT22;38515;53.160;6.990;2023-12-22T09:07:55;5.10;99.90
52621;DHT22;38515;53.160;6.990;2023-12-22T09:10:21;5.20;99.90
52621;DHT22;38515;53.160;6.990;2023-12-22T09:12:46;5.20;99.90
52621;DHT22;38515;53.160;6.990;2023-12-22T09:15:12;5.50;99.90
52621;DHT22;38515;53.160;6.990;2023-12-22T09:17:38;5.30;99.90
52621;DHT22;38515;53.160;6.990;2023-12-22T09:20:04;5.30;99.90
52621;DHT22;38515;53.160;6.990;2023-12-22T09:22:30;5.30;91.60
52621;DHT22;38515;53.160;6.990;2023-12-22T09:24:56;5.30;1.00
52621;DHT22;38515;53.160;6.990;2023-12-22T09:27:22;5.30;99.90
52621;DHT22;38515;53.160;6.990;2023-12-22T09:29:47;5.40;1.00
52621;DHT22;38515;53.160;6.990;2023-12-22T09:32:13;5.50;99.90
52621;DHT22;38515;53.160;6.990;2023-12-22T09:34:39;5.50;99.90
52621;DHT22;38515;53.160;6.990;2023-12-22T09:37:05;5.60;1.00
52621;DHT22;38515;53.160;6.990;2023-12-22T09:39:32;5.60;29.60
52621;DHT22;38515;53.160;6.990;2023-12-22T09:41:57;5.70;27.80
52621;DHT22;38515;53.160;6.990;2023-12-22T09:44:24;5.70;99.90
52621;DHT22;38515;53.160;6.990;2023-12-22T09:46:50;5.80;79.90
52621;DHT22;38515;53.160;6.990;2023-12-22T09:49:18;5.80;36.50
52621;DHT22;38515;53.160;6.990;2023-12-22T09:51:46;6.70;1.00
52621;DHT22;38515;53.160;6.990;2023-12-22T09:54:13;5.80;99.90
52621;DHT22;38515;53.160;6.990;2023-12-22T09:56:40;5.90;99.90
52621;DHT22;38515;53.160;6.990;2023-12-22T09:59:12;5.90;99.90
52621;DHT22;38515;53.160;6.990;2023-12-22T10:01:43;6.10;99.90
52621;DHT22;38515;53.160;6.990;2023-12-22T10:04:09;6.20;1.00
52621;DHT22;38515;53.160;6.990;2023-12-22T10:06:35;6.20;1.00
52621;DHT22;38515;53.160;6.990;2023-12-22T10:09:03;6.20;1.00
52621;DHT22;38515;53.160;6.990;2023-12-22T10:11:32;6.30;1.00
52621;DHT22;38515;53.160;6.990;2023-12-22T10:13:59;6.30;99.90
52621;DHT22;38515;53.160;6.990;2023-12-22T10:16:25;6.30;18.80
52621;DHT22;38515;53.160;6.990;2023-12-22T10:18:51;6.50;74.10
52621;DHT22;38515;53.160;6.990;2023-12-22T10:21:17;6.60;32.50
52621;DHT22;38515;53.160;6.990;2023-12-22T10:23:43;6.50;1.00
52621;DHT22;38515;53.160;6.990;2023-12-22T10:26:11;6.50;99.90
52621;DHT22;38515;53.160;6.990;2023-12-22T10:28:37;6.50;1.00
52621;DHT22;38515;53.160;6.990;2023-12-22T10:31:03;6.60;99.90
52621;DHT22;38515;53.160;6.990;2023-12-22T10:33:32;6.60;1.00
52621;DHT22;38515;53.160;6.990;2023-12-22T10:36:01;6.70;99.90
52621;DHT22;38515;53.160;6.990;2023-12-22T10:38:34;6.70;1.00
52621;DHT22;38515;53.160;6.990;2023-12-22T10:41:03;6.70;99.90
52621;DHT22;38515;53.160;6.990;2023-12-22T10:43:29;6.70;1.00
52621;DHT22;38515;53.160;6.990;2023-12-22T10:45:55;6.70;65.30
52621;DHT22;38515;53.160;6.990;2023-12-22T10:48:22;6.40;1.00
52621;DHT22;38515;53.160;6.990;2023-12-22T10:50:50;6.80;1.00
52621;DHT22;38515;53.160;6.990;2023-12-22T10:53:16;6.80;1.00
52621;DHT22;38515;53.160;6.990;2023-12-22T10:55:42;6.80;4.50
52621;DHT22;38515;53.160;6.990;2023-12-22T10:58:09;7.20;1.00
52621;DHT22;38515;53.160;6.990;2023-12-22T11:00:37;6.90;72.00
52621;DHT22;38515;53.160;6.990;2023-12-22T11:03:06;6.90;99.90
52621;DHT22;38515;53.160;6.990;2023-12-22T11:05:35;7.00;1.00
52621;DHT22;38515;53.160;6.990;2023-12-22T11:08:03;7.10;1.00
52621;DHT22;38515;53.160;6.990;2023-12-22T11:10:31;7.00;99.90
52621;DHT22;38515;53.160;6.990;2023-12-22T11:12:57;7.90;99.90
52621;DHT22;38515;53.160;6.990;2023-12-22T11:15:24;7.20;99.90
52621;DHT22;38515;53.160;6.990;2023-12-22T11:17:52;7.00;99.90
52621;DHT22;38515;53.160;6.990;2023-12-22T11:20:23;7.10;1.00
52621;DHT22;38515;53.160;6.990;2023-12-22T11:22:50;7.00;1.00
52621;DHT22;38515;53.160;6.990;2023-12-22T11:25:17;7.00;99.90
52621;DHT22;38515;53.160;6.990;2023-12-22T11:27:43;7.00;99.90
52621;DHT22;38515;53.160;6.990;2023-12-22T11:30:13;7.20;1.00
52621;DHT22;38515;53.160;6.990;2023-12-22T11:32:39;7.00;99.90
52621;DHT22;38515;53.160;6.990;2023-12-22T11:35:07;7.00;99.90
52621;DHT22;38515;53.160;6.990;2023-12-22T11:37:35;7.10;1.00
52621;DHT22;38515;53.160;6.990;2023-12-22T11:40:01;7.10;99.90
52621;DHT22;38515;53.160;6.990;2023-12-22T11:42:33;7.00;99.90
52621;DHT22;38515;53.160;6.990;2023-12-22T11:45:03;7.00;99.90
52621;DHT22;38515;53.160;6.990;2023-12-22T11:47:29;7.10;1.00
52621;DHT22;38515;53.160;6.990;2023-12-22T11:49:56;7.30;1.00
52621;DHT22;38515;53.160;6.990;2023-12-22T11:52:26;7.00;99.90
52621;DHT22;38515;53.160;6.990;2023-12-22T11:54:54;7.10;1.00
52621;DHT22;38515;53.160;6.990;2023-12-22T11:57:34;7.10;99.90
52621;DHT22;38515;53.160;6.990;2023-12-22T12:02:36;7.20;99.90
52621;DHT22;38515;53.160;6.990;2023-12-22T12:05:04;7.20;1.00
52621;DHT22;38515;53.160;6.990;2023-12-22T12:07:39;7.20;1.00
52621;DHT22;38515;53.160;6.990;2023-12-22T12:10:13;7.20;99.90
52621;DHT22;38515;53.160;6.990;2023-12-22T12:12:40;7.30;99.90
52621;DHT22;38515;53.160;6.990;2023-12-22T12:15:15;7.20;77.20
52621;DHT22;38515;53.160;6.990;2023-12-22T12:17:43;7.90;99.90
52621;DHT22;38515;53.160;6.990;2023-12-22T12:20:10;7.30;1.00
52621;DHT22;38515;53.160;6.990;2023-12-22T12:22:37;7.10;99.90
52621;DHT22;38515;53.160;6.990;2023-12-22T12:25:07;7.70;99.90
52621;DHT22;38515;53.160;6.990;2023-12-22T12:27:35;7.40;1.00
52621;DHT22;38515;53.160;6.990;2023-12-22T12:30:13;7.20;1.00
52621;DHT22;38515;53.160;6.990;2023-12-22T12:32:42;7.30;99.90
52621;DHT22;38515;53.160;6.990;2023-12-22T12:35:10;8.00;1.00
52621;DHT22;38515;53.160;6.990;2023-12-22T12:37:36;7.20;95.80
52621;DHT22;38515;53.160;6.990;2023-12-22T12:40:03;7.20;28.80
52621;DHT22;38515;53.160;6.990;2023-12-22T12:42:31;7.20;99.90
52621;DHT22;38515;53.160;6.990;2023-12-22T12:44:57;7.30;99.90
52621;DHT22;38515;53.160;6.990;2023-12-22T12:47:23;7.30;99.90
52621;DHT22;38515;53.160;6.990;2023-12-22T12:49:59;7.20;1.00
52621;DHT22;38515;53.160;6.990;2023-12-22T12:52:25;7.20;99.90
52621;DHT22;38515;53.160;6.990;2023-12-22T12:54:51;7.10;99.90
52621;DHT22;38515;53.160;6.990;2023-12-22T12:57:17;7.20;1.00
52621;DHT22;38515;53.160;6.990;2023-12-22T12:59:51;7.30;99.90
52621;DHT22;38515;53.160;6.990;2023-12-22T13:02:17;7.60;99.90
52621;DHT22;38515;53.160;6.990;2023-12-22T13:04:44;7.20;99.90
52621;DHT22;38515;53.160;6.990;2023-12-22T13:07:10;7.20;99.90
52621;DHT22;38515;53.160;6.990;2023-12-22T13:09:38;7.20;1.00
52621;DHT22;38515;53.160;6.990;2023-12-22T13:12:04;7.20;99.90
52621;DHT22;38515;53.160;6.990;2023-12-22T13:14:30;7.20;99.90
52621;DHT22;38515;53.160;6.990;2023-12-22T13:16:57;7.20;99.90
52621;DHT22;38515;53.160;6.990;2023-12-22T13:19:23;7.20;99.90
52621;DHT22;38515;53.160;6.990;2023-12-22T13:21:56;7.10;99.90
52621;DHT22;38515;53.160;6.990;2023-12-22T13:24:22;7.10;1.00
52621;DHT22;38515;53.160;6.990;2023-12-22T13:26:59;7.00;1.00
52621;DHT22;38515;53.160;6.990;2023-12-22T13:29:30;7.10;99.90
52621;DHT22;38515;53.160;6.990;2023-12-22T13:32:06;6.90;94.50
52621;DHT22;38515;53.160;6.990;2023-12-22T13:34:32;6.80;99.90
52621;DHT22;38515;53.160;6.990;2023-12-22T13:36:58;6.70;1.00
52621;DHT22;38515;53.160;6.990;2023-12-22T13:39:27;6.70;99.90
52621;DHT22;38515;53.160;6.990;2023-12-22T13:41:53;6.60;99.90
52621;DHT22;38515;53.160;6.990;2023-12-22T13:44:19;6.50;92.80
52621;DHT22;38515;53.160;6.990;2023-12-22T13:46:44;6.50;75.70
52621;DHT22;38515;53.160;6.990;2023-12-22T13:49:11;6.50;99.90
52621;DHT22;38515;53.160;6.990;2023-12-22T13:51:44;6.70;10.90
52621;DHT22;38515;53.160;6.990;2023-12-22T13:54:11;6.40;1.00
52621;DHT22;38515;53.160;6.990;2023-12-22T13:56:37;6.50;1.00
52621;DHT22;38515;53.160;6.990;2023-12-22T13:59:05;6.40;1.00
52621;DHT22;38515;53.160;6.990;2023-12-22T14:01:31;6.50;99.90
52621;DHT22;38515;53.160;6.990;2023-12-22T14:03:58;6.40;99.90
52621;DHT22;38515;53.160;6.990;2023-12-22T14:06:27;6.50;1.00
52621;DHT22;38515;53.160;6.990;2023-12-22T14:08:54;6.30;99.90
52621;DHT22;38515;53.160;6.990;2023-12-22T14:11:20;6.30;99.90
52621;DHT22;38515;53.160;6.990;2023-12-22T14:13:46;6.20;99.90
52621;DHT22;38515;53.160;6.990;2023-12-22T14:16:12;6.20;50.70
52621;DHT22;38515;53.160;6.990;2023-12-22T14:18:38;6.20;99.90
52621;DHT22;38515;53.160;6.990;2023-12-22T14:21:04;6.10;99.90
52621;DHT22;38515;53.160;6.990;2023-12-22T14:23:31;6.10;99.90
52621;DHT22;38515;53.160;6.990;2023-12-22T14:25:57;6.20;44.60
52621;DHT22;38515;53.160;6.990;2023-12-22T14:28:23;6.20;1.00
52621;DHT22;38515;53.160;6.990;2023-12-22T14:30:49;6.20;1.00
52621;DHT22;38515;53.160;6.990;2023-12-22T14:33:14;6.10;1.00
52621;DHT22;38515;53.160;6.990;2023-12-22T14:35:40;6.20;20.00
52621;DHT22;38515;53.160;6.990;2023-12-22T14:38:06;6.30;99.90
52621;DHT22;38515;53.160;6.990;2023-12-22T14:40:32;6.20;1.00
52621;DHT22;38515;53.160;6.990;2023-12-22T14:42:58;6.10;99.90
52621;DHT22;38515;53.160;6.990;2023-12-22T14:45:24;6.00;1.00
52621;DHT22;38515;53.160;6.990;2023-12-22T14:47:50;5.90;99.90
52621;DHT22;38515;53.160;6.990;2023-12-22T14:50:17;5.80;99.90
52621;DHT22;38515;53.160;6.990;2023-12-22T14:52:42;5.70;99.90
52621;DHT22;38515;53.160;6.990;2023-12-22T14:55:08;5.70;82.70
52621;DHT22;38515;53.160;6.990;2023-12-22T14:57:34;5.70;99.90
52621;DHT22;38515;53.160;6.990;2023-12-22T15:00:00;5.80;99.90
52621;DHT22;38515;53.160;6.990;2023-12-22T15:02:26;5.60;1.00
52621;DHT22;38515;53.160;6.990;2023-12-22T15:04:52;5.60;1.00
52621;DHT22;38515;53.160;6.990;2023-12-22T15:07:18;5.50;1.00
52621;DHT22;38515;53.160;6.990;2023-12-22T15:09:48;5.60;99.90
52621;DHT22;38515;53.160;6.990;2023-12-22T15:12:17;5.50;99.90
52621;DHT22;38515;53.160;6.990;2023-12-22T15:14:44;5.60;99.90
52621;DHT22;38515;53.160;6.990;2023-12-22T15:17:10;5.50;99.90
52621;DHT22;38515;53.160;6.990;2023-12-22T15:19:42;5.60;99.90
52621;DHT22;38515;53.160;6.990;2023-12-22T15:22:09;5.50;99.90
52621;DHT22;38515;53.160;6.990;2023-12-22T15:24:37;5.50;99.90
52621;DHT22;38515;53.160;6.990;2023-12-22T15:27:06;5.50;1.00
52621;DHT22;38515;53.160;6.990;2023-12-22T15:29:32;6.40;1.00
52621;DHT22;38515;53.160;6.990;2023-12-22T15:31:58;6.50;78.80
52621;DHT22;38515;53.160;6.990;2023-12-22T15:34:25;6.10;99.90
52621;DHT22;38515;53.160;6.990;2023-12-22T15:36:51;6.10;99.90
52621;DHT22;38515;53.160;6.990;2023-12-22T15:39:17;5.80;99.90
52621;DHT22;38515;53.160;6.990;2023-12-22T15:41:42;5.80;99.90
52621;DHT22;38515;53.160;6.990;2023-12-22T15:44:08;5.90;99.90
52621;DHT22;38515;53.160;6.990;2023-12-22T15:46:34;5.90;99.90
52621;DHT22;38515;53.160;6.990;2023-12-22T15:48:59;6.20;99.90
52621;DHT22;38515;53.160;6.990;2023-12-22T15:51:25;6.30;99.90
52621;DHT22;38515;53.160;6.990;2023-12-22T15:53:51;6.00;99.90